sensor_id;sensor_type;location;lat;lon;timestamp;pressure;altitude;pressure_sealevel;temperature;humidity
41202;BME280;26936;50.524;8.684;2023-04-26T00:00:44;99512.75;;;2.93;97.19
41202;BME280;26936;50.524;8.684;2023-04-26T00:03:10;99522.28;;;2.81;98.17
41202;BME280;26936;50.524;8.684;2023-04-26T00:05:37;99519.50;;;2.81;98.01
41202;BME280;26936;50.524;8.684;2023-04-26T00:08:02;99532.22;;;2.71;99.17
41202;BME280;26936;50.524;8.684;2023-04-26T00:10:28;99522.28;;;2.60;98.88
41202;BME280;26936;50.524;8.684;2023-04-26T00:12:53;99528.66;;;2.64;99.09
41202;BME280;26936;50.524;8.684;2023-04-26T00:15:19;99526.66;;;2.61;98.87
41202;BME280;26936;50.524;8.684;2023-04-26T00:17:44;99523.88;;;2.68;99.38
41202;BME280;26936;50.524;8.684;2023-04-26T00:20:10;99519.91;;;2.62;100.00
41202;BME280;26936;50.524;8.684;2023-04-26T00:22:37;99518.31;;;2.54;100.00
41202;BME280;26936;50.524;8.684;2023-04-26T00:25:02;99521.50;;;2.52;100.00
41202;BME280;26936;50.524;8.684;2023-04-26T00:27:28;99522.69;;;2.48;100.00
41202;BME280;26936;50.524;8.684;2023-04-26T00:29:53;99525.47;;;2.48;100.00
41202;BME280;26936;50.524;8.684;2023-04-26T00:32:18;99522.28;;;2.46;100.00
41202;BME280;26936;50.524;8.684;2023-04-26T00:34:43;99524.66;;;2.44;100.00
41202;BME280;26936;50.524;8.684;2023-04-26T00:37:09;99528.63;;;2.43;100.00
41202;BME280;26936;50.524;8.684;2023-04-26T00:39:34;99525.84;;;2.43;100.00
41202;BME280;26936;50.524;8.684;2023-04-26T00:41:59;99525.47;;;2.44;100.00
41202;BME280;26936;50.524;8.684;2023-04-26T00:44:25;99527.84;;;2.42;100.00
41202;BME280;26936;50.524;8.684;2023-04-26T00:46:52;99531.00;;;2.34;100.00
41202;BME280;26936;50.524;8.684;2023-04-26T00:49:19;99536.16;;;2.35;100.00
41202;BME280;26936;50.524;8.684;2023-04-26T00:51:46;99522.66;;;2.34;100.00
41202;BME280;26936;50.524;8.684;2023-04-26T00:54:12;99528.22;;;2.37;100.00
41202;BME280;26936;50.524;8.684;2023-04-26T00:56:38;99526.19;;;2.20;100.00
41202;BME280;26936;50.524;8.684;2023-04-26T00:59:03;99521.06;;;2.33;100.00
41202;BME280;26936;50.524;8.684;2023-04-26T01:01:28;99523.03;;;2.22;100.00
41202;BME280;26936;50.524;8.684;2023-04-26T01:03:54;99515.47;;;2.19;100.00
41202;BME280;26936;50.524;8.684;2023-04-26T01:06:19;99529.78;;;2.21;100.00
41202;BME280;26936;50.524;8.684;2023-04-26T01:08:45;99528.53;;;2.08;100.00
41202;BME280;26936;50.524;8.684;2023-04-26T01:11:11;99528.94;;;2.06;100.00
41202;BME280;26936;50.524;8.684;2023-04-26T01:13:37;99533.31;;;2.07;100.00
41202;BME280;26936;50.524;8.684;2023-04-26T01:16:03;99531.28;;;2.01;100.00
41202;BME280;26936;50.524;8.684;2023-04-26T01:18:28;99524.97;;;2.04;100.00
41202;BME280;26936;50.524;8.684;2023-04-26T01:20:54;99523.38;;;1.96;100.00
41202;BME280;26936;50.524;8.684;2023-04-26T01:23:21;99518.19;;;1.91;100.00
41202;BME280;26936;50.524;8.684;2023-04-26T01:25:47;99519.34;;;1.86;100.00
41202;BME280;26936;50.524;8.684;2023-04-26T01:28:12;99521.75;;;1.84;100.00
41202;BME280;26936;50.524;8.684;2023-04-26T01:30:37;99518.56;;;1.86;100.00
41202;BME280;26936;50.524;8.684;2023-04-26T01:33:03;99514.56;;;1.80;100.00
41202;BME280;26936;50.524;8.684;2023-04-26T01:35:28;99519.34;;;1.79;100.00
41202;BME280;26936;50.524;8.684;2023-04-26T01:37:53;99515.78;;;1.82;100.00
41202;BME280;26936;50.524;8.684;2023-04-26T01:40:18;99509.38;;;1.75;100.00
41202;BME280;26936;50.524;8.684;2023-04-26T01:42:44;99516.53;;;1.76;100.00
41202;BME280;26936;50.524;8.684;2023-04-26T01:45:09;99520.47;;;1.68;100.00
41202;BME280;26936;50.524;8.684;2023-04-26T01:47:35;99520.84;;;1.59;100.00
41202;BME280;26936;50.524;8.684;2023-04-26T01:50:01;99515.69;;;1.61;100.00
41202;BME280;26936;50.524;8.684;2023-04-26T01:52:26;99518.44;;;1.58;100.00
41202;BME280;26936;50.524;8.684;2023-04-26T01:54:51;99518.81;;;1.53;100.00
41202;BME280;26936;50.524;8.684;2023-04-26T01:57:17;99532.28;;;1.51;100.00
41202;BME280;26936;50.524;8.684;2023-04-26T01:59:42;99529.09;;;1.45;100.00
41202;BME280;26936;50.524;8.684;2023-04-26T02:02:07;99528.66;;;1.39;100.00
41202;BME280;26936;50.524;8.684;2023-04-26T02:04:33;99527.47;;;1.40;100.00
41202;BME280;26936;50.524;8.684;2023-04-26T02:06:58;99531.81;;;1.34;100.00
41202;BME280;26936;50.524;8.684;2023-04-26T02:09:23;99535.34;;;1.31;100.00
41202;BME280;26936;50.524;8.684;2023-04-26T02:11:48;99536.53;;;1.27;100.00
41202;BME280;26936;50.524;8.684;2023-04-26T02:14:14;99527.72;;;1.18;100.00
41202;BME280;26936;50.524;8.684;2023-04-26T02:16:39;99529.34;;;1.19;100.00
41202;BME280;26936;50.524;8.684;2023-04-26T02:19:05;99528.53;;;1.18;100.00
41202;BME280;26936;50.524;8.684;2023-04-26T02:21:49;99529.38;;;1.26;100.00
41202;BME280;26936;50.524;8.684;2023-04-26T02:24:15;99523.44;;;1.24;100.00
41202;BME280;26936;50.524;8.684;2023-04-26T02:26:40;99522.97;;;1.15;100.00
41202;BME280;26936;50.524;8.684;2023-04-26T02:29:06;99531.69;;;1.13;100.00
41202;BME280;26936;50.524;8.684;2023-04-26T02:31:31;99531.66;;;1.10;100.00
41202;BME280;26936;50.524;8.684;2023-04-26T02:33:56;99536.00;;;1.07;100.00
41202;BME280;26936;50.524;8.684;2023-04-26T02:36:22;99537.97;;;1.07;100.00
41202;BME280;26936;50.524;8.684;2023-04-26T02:38:47;99540.78;;;1.10;100.00
41202;BME280;26936;50.524;8.684;2023-04-26T02:41:12;99536.84;;;1.15;100.00
41202;BME280;26936;50.524;8.684;2023-04-26T02:43:37;99534.00;;;1.04;100.00
41202;BME280;26936;50.524;8.684;2023-04-26T02:46:06;99535.88;;;0.93;100.00
41202;BME280;26936;50.524;8.684;2023-04-26T02:48:31;99539.56;;;1.04;100.00
41202;BME280;26936;50.524;8.684;2023-04-26T02:50:56;99540.38;;;1.12;100.00
41202;BME280;26936;50.524;8.684;2023-04-26T02:53:22;99539.69;;;1.25;100.00
41202;BME280;26936;50.524;8.684;2023-04-26T02:55:47;99530.94;;;1.23;100.00
41202;BME280;26936;50.524;8.684;2023-04-26T02:58:13;99532.94;;;1.23;100.00
41202;BME280;26936;50.524;8.684;2023-04-26T03:00:38;99534.13;;;1.22;100.00
41202;BME280;26936;50.524;8.684;2023-04-26T03:03:03;99528.09;;;1.13;100.00
41202;BME280;26936;50.524;8.684;2023-04-26T03:05:29;99530.88;;;1.13;100.00
41202;BME280;26936;50.524;8.684;2023-04-26T03:07:54;99534.41;;;1.06;100.00
41202;BME280;26936;50.524;8.684;2023-04-26T03:10:20;99530.75;;;0.95;100.00
41202;BME280;26936;50.524;8.684;2023-04-26T03:12:45;99526.00;;;0.92;100.00
41202;BME280;26936;50.524;8.684;2023-04-26T03:15:11;99525.56;;;0.90;100.00
41202;BME280;26936;50.524;8.684;2023-04-26T03:17:36;99526.31;;;0.84;100.00
41202;BME280;26936;50.524;8.684;2023-04-26T03:20:02;99531.84;;;0.84;100.00
41202;BME280;26936;50.524;8.684;2023-04-26T03:22:30;99522.72;;;0.80;100.00
41202;BME280;26936;50.524;8.684;2023-04-26T03:24:55;99521.53;;;0.81;100.00
41202;BME280;26936;50.524;8.684;2023-04-26T03:27:21;99517.56;;;0.82;100.00
41202;BME280;26936;50.524;8.684;2023-04-26T03:29:46;99519.16;;;0.79;100.00
41202;BME280;26936;50.524;8.684;2023-04-26T03:32:11;99523.50;;;0.80;100.00
41202;BME280;26936;50.524;8.684;2023-04-26T03:34:36;99525.47;;;0.76;100.00
41202;BME280;26936;50.524;8.684;2023-04-26T03:37:02;99529.81;;;0.77;100.00
41202;BME280;26936;50.524;8.684;2023-04-26T03:39:27;99524.63;;;0.72;100.00
41202;BME280;26936;50.524;8.684;2023-04-26T03:41:52;99528.97;;;0.70;100.00
41202;BME280;26936;50.524;8.684;2023-04-26T03:44:17;99527.75;;;0.67;100.00
41202;BME280;26936;50.524;8.684;2023-04-26T03:46:43;99527.00;;;0.70;100.00
41202;BME280;26936;50.524;8.684;2023-04-26T03:49:08;99520.22;;;0.64;100.00
41202;BME280;26936;50.524;8.684;2023-04-26T03:51:33;99521.03;;;0.65;100.00
41202;BME280;26936;50.524;8.684;2023-04-26T03:53:58;99518.63;;;0.63;100.00
41202;BME280;26936;50.524;8.684;2023-04-26T03:56:24;99517.38;;;0.57;100.00
41202;BME280;26936;50.524;8.684;2023-04-26T03:58:49;99511.44;;;0.55;100.00
41202;BME280;26936;50.524;8.684;2023-04-26T04:01:14;99515.38;;;0.54;100.00
41202;BME280;26936;50.524;8.684;2023-04-26T04:03:40;99515.38;;;0.54;100.00
41202;BME280;26936;50.524;8.684;2023-04-26T04:06:05;99507.88;;;0.55;100.00
41202;BME280;26936;50.524;8.684;2023-04-26T04:08:30;99513.00;;;0.53;100.00
41202;BME280;26936;50.524;8.684;2023-04-26T04:10:56;99511.84;;;0.57;100.00
41202;BME280;26936;50.524;8.684;2023-04-26T04:13:21;99516.97;;;0.55;100.00
41202;BME280;26936;50.524;8.684;2023-04-26T04:15:46;99523.66;;;0.51;100.00
41202;BME280;26936;50.524;8.684;2023-04-26T04:18:12;99516.09;;;0.48;100.00
41202;BME280;26936;50.524;8.684;2023-04-26T04:20:37;99530.34;;;0.46;100.00
41202;BME280;26936;50.524;8.684;2023-04-26T04:23:02;99523.25;;;0.49;100.00
41202;BME280;26936;50.524;8.684;2023-04-26T04:25:30;99529.97;;;0.48;100.00
41202;BME280;26936;50.524;8.684;2023-04-26T04:27:55;99526.81;;;0.49;100.00
41202;BME280;26936;50.524;8.684;2023-04-26T04:30:20;99532.34;;;0.46;100.00
41202;BME280;26936;50.524;8.684;2023-04-26T04:32:46;99533.94;;;0.47;100.00
41202;BME280;26936;50.524;8.684;2023-04-26T04:35:11;99534.34;;;0.49;100.00
41202;BME280;26936;50.524;8.684;2023-04-26T04:37:37;99537.94;;;0.53;100.00
41202;BME280;26936;50.524;8.684;2023-04-26T04:40:03;99541.63;;;0.67;100.00
41202;BME280;26936;50.524;8.684;2023-04-26T04:42:28;99533.31;;;0.67;100.00
41202;BME280;26936;50.524;8.684;2023-04-26T04:44:54;99546.91;;;0.83;100.00
41202;BME280;26936;50.524;8.684;2023-04-26T04:47:20;99549.38;;;0.95;100.00
41202;BME280;26936;50.524;8.684;2023-04-26T04:49:45;99550.31;;;1.16;100.00
41202;BME280;26936;50.524;8.684;2023-04-26T04:52:11;99557.59;;;1.38;100.00
41202;BME280;26936;50.524;8.684;2023-04-26T04:54:36;99559.31;;;1.64;100.00
41202;BME280;26936;50.524;8.684;2023-04-26T04:57:02;99561.00;;;1.79;100.00
41202;BME280;26936;50.524;8.684;2023-04-26T04:59:27;99558.69;;;1.99;100.00
41202;BME280;26936;50.524;8.684;2023-04-26T05:01:53;99557.94;;;2.19;99.73
41202;BME280;26936;50.524;8.684;2023-04-26T05:04:18;99569.09;;;2.33;98.61
41202;BME280;26936;50.524;8.684;2023-04-26T05:06:43;99573.50;;;2.48;97.78
41202;BME280;26936;50.524;8.684;2023-04-26T05:09:09;99576.31;;;2.73;96.78
41202;BME280;26936;50.524;8.684;2023-04-26T05:11:35;99576.34;;;2.94;95.83
41202;BME280;26936;50.524;8.684;2023-04-26T05:14:00;99585.88;;;3.21;94.21
41202;BME280;26936;50.524;8.684;2023-04-26T05:16:26;99587.03;;;3.41;93.63
41202;BME280;26936;50.524;8.684;2023-04-26T05:18:51;99586.16;;;3.76;92.22
41202;BME280;26936;50.524;8.684;2023-04-26T05:21:16;99585.25;;;4.10;90.11
41202;BME280;26936;50.524;8.684;2023-04-26T05:23:42;99585.91;;;4.39;88.60
41202;BME280;26936;50.524;8.684;2023-04-26T05:26:11;99591.66;;;4.76;86.12
41202;BME280;26936;50.524;8.684;2023-04-26T05:28:37;99583.69;;;5.26;84.19
41202;BME280;26936;50.524;8.684;2023-04-26T05:31:02;99592.72;;;5.81;81.75
41202;BME280;26936;50.524;8.684;2023-04-26T05:33:28;99582.50;;;6.35;79.22
41202;BME280;26936;50.524;8.684;2023-04-26T05:35:53;99590.94;;;6.88;75.88
41202;BME280;26936;50.524;8.684;2023-04-26T05:38:19;99586.72;;;7.49;73.87
41202;BME280;26936;50.524;8.684;2023-04-26T05:40:46;99598.63;;;7.57;72.22
41202;BME280;26936;50.524;8.684;2023-04-26T05:43:12;99589.97;;;8.49;69.30
41202;BME280;26936;50.524;8.684;2023-04-26T05:45:38;99591.75;;;8.95;66.48
41202;BME280;26936;50.524;8.684;2023-04-26T05:48:03;99592.22;;;9.09;65.31
41202;BME280;26936;50.524;8.684;2023-04-26T05:50:28;99588.91;;;9.91;63.29
41202;BME280;26936;50.524;8.684;2023-04-26T05:52:54;99582.97;;;10.18;61.80
41202;BME280;26936;50.524;8.684;2023-04-26T05:55:19;99591.88;;;10.70;60.08
41202;BME280;26936;50.524;8.684;2023-04-26T05:57:45;99597.97;;;11.19;59.10
41202;BME280;26936;50.524;8.684;2023-04-26T06:00:11;99594.28;;;11.81;57.17
41202;BME280;26936;50.524;8.684;2023-04-26T06:02:36;99591.47;;;12.37;54.89
41202;BME280;26936;50.524;8.684;2023-04-26T06:05:02;99599.25;;;12.54;53.53
41202;BME280;26936;50.524;8.684;2023-04-26T06:07:29;99590.41;;;13.26;51.98
41202;BME280;26936;50.524;8.684;2023-04-26T06:09:54;99594.25;;;13.59;49.91
41202;BME280;26936;50.524;8.684;2023-04-26T06:12:19;99595.69;;;13.63;50.38
41202;BME280;26936;50.524;8.684;2023-04-26T06:14:45;99600.28;;;13.97;49.12
41202;BME280;26936;50.524;8.684;2023-04-26T06:17:10;99600.13;;;13.83;49.65
41202;BME280;26936;50.524;8.684;2023-04-26T06:19:35;99601.91;;;14.25;49.10
41202;BME280;26936;50.524;8.684;2023-04-26T06:22:01;99603.75;;;14.64;47.34
41202;BME280;26936;50.524;8.684;2023-04-26T06:24:26;99608.75;;;14.87;47.77
41202;BME280;26936;50.524;8.684;2023-04-26T06:26:51;99603.09;;;14.87;48.97
41202;BME280;26936;50.524;8.684;2023-04-26T06:29:17;99604.63;;;14.98;48.92
41202;BME280;26936;50.524;8.684;2023-04-26T06:31:42;99614.16;;;15.18;47.15
41202;BME280;26936;50.524;8.684;2023-04-26T06:34:07;99613.00;;;15.66;46.40
41202;BME280;26936;50.524;8.684;2023-04-26T06:36:32;99603.66;;;15.75;45.59
41202;BME280;26936;50.524;8.684;2023-04-26T06:38:58;99609.03;;;15.73;45.66
41202;BME280;26936;50.524;8.684;2023-04-26T06:41:23;99611.16;;;15.87;45.98
41202;BME280;26936;50.524;8.684;2023-04-26T06:43:48;99607.53;;;16.10;44.87
41202;BME280;26936;50.524;8.684;2023-04-26T06:46:13;99612.81;;;16.17;44.06
41202;BME280;26936;50.524;8.684;2023-04-26T06:48:39;99616.34;;;15.88;44.24
41202;BME280;26936;50.524;8.684;2023-04-26T06:51:05;99620.53;;;16.40;44.14
41202;BME280;26936;50.524;8.684;2023-04-26T06:53:31;99620.50;;;16.64;43.22
41202;BME280;26936;50.524;8.684;2023-04-26T06:55:56;99617.38;;;16.62;42.67
41202;BME280;26936;50.524;8.684;2023-04-26T06:58:22;99621.50;;;16.61;43.62
41202;BME280;26936;50.524;8.684;2023-04-26T07:00:47;99614.41;;;15.94;44.22
41202;BME280;26936;50.524;8.684;2023-04-26T07:03:12;99619.03;;;16.68;42.09
41202;BME280;26936;50.524;8.684;2023-04-26T07:05:38;99622.75;;;17.03;42.04
41202;BME280;26936;50.524;8.684;2023-04-26T07:08:03;99623.47;;;16.98;43.91
41202;BME280;26936;50.524;8.684;2023-04-26T07:10:29;99621.78;;;17.21;42.99
41202;BME280;26936;50.524;8.684;2023-04-26T07:12:54;99617.72;;;17.56;41.60
41202;BME280;26936;50.524;8.684;2023-04-26T07:15:19;99620.88;;;17.29;42.24
41202;BME280;26936;50.524;8.684;2023-04-26T07:17:45;99621.56;;;17.53;40.67
41202;BME280;26936;50.524;8.684;2023-04-26T07:20:10;99628.25;;;17.21;40.57
41202;BME280;26936;50.524;8.684;2023-04-26T07:22:36;99619.75;;;17.71;41.18
41202;BME280;26936;50.524;8.684;2023-04-26T07:25:01;99622.41;;;18.14;39.16
41202;BME280;26936;50.524;8.684;2023-04-26T07:27:26;99617.09;;;17.67;39.05
41202;BME280;26936;50.524;8.684;2023-04-26T07:29:54;99612.22;;;18.08;39.39
41202;BME280;26936;50.524;8.684;2023-04-26T07:32:20;99611.31;;;18.16;38.35
41202;BME280;26936;50.524;8.684;2023-04-26T07:34:45;99608.94;;;18.35;36.71
41202;BME280;26936;50.524;8.684;2023-04-26T07:37:10;99614.09;;;18.11;37.41
41202;BME280;26936;50.524;8.684;2023-04-26T07:39:36;99612.25;;;18.73;36.88
41202;BME280;26936;50.524;8.684;2023-04-26T07:42:02;99620.91;;;18.59;36.52
41202;BME280;26936;50.524;8.684;2023-04-26T07:44:27;99611.56;;;18.58;36.70
41202;BME280;26936;50.524;8.684;2023-04-26T07:46:52;99608.50;;;18.62;36.66
41202;BME280;26936;50.524;8.684;2023-04-26T07:49:17;99602.25;;;18.38;37.10
41202;BME280;26936;50.524;8.684;2023-04-26T07:51:43;99596.78;;;17.94;36.82
41202;BME280;26936;50.524;8.684;2023-04-26T07:54:09;99600.88;;;18.53;37.58
41202;BME280;26936;50.524;8.684;2023-04-26T07:56:34;99590.53;;;18.36;37.38
41202;BME280;26936;50.524;8.684;2023-04-26T07:59:00;99603.75;;;18.79;36.58
41202;BME280;26936;50.524;8.684;2023-04-26T08:01:25;99593.56;;;18.72;35.86
41202;BME280;26936;50.524;8.684;2023-04-26T08:03:51;99591.44;;;18.67;36.62
41202;BME280;26936;50.524;8.684;2023-04-26T08:06:16;99594.63;;;19.32;35.60
41202;BME280;26936;50.524;8.684;2023-04-26T08:08:41;99596.81;;;18.85;37.03
41202;BME280;26936;50.524;8.684;2023-04-26T08:11:09;99593.06;;;18.48;37.44
41202;BME280;26936;50.524;8.684;2023-04-26T08:13:35;99593.97;;;18.85;36.46
41202;BME280;26936;50.524;8.684;2023-04-26T08:16:00;99595.69;;;18.52;36.09
41202;BME280;26936;50.524;8.684;2023-04-26T08:18:26;99593.72;;;17.98;35.70
41202;BME280;26936;50.524;8.684;2023-04-26T08:20:51;99589.06;;;18.00;37.12
41202;BME280;26936;50.524;8.684;2023-04-26T08:23:19;99604.13;;;17.17;38.03
41202;BME280;26936;50.524;8.684;2023-04-26T08:25:44;99600.09;;;17.09;36.61
41202;BME280;26936;50.524;8.684;2023-04-26T08:28:10;99602.13;;;17.37;37.12
41202;BME280;26936;50.524;8.684;2023-04-26T08:30:38;99596.84;;;17.80;37.14
41202;BME280;26936;50.524;8.684;2023-04-26T08:33:03;99592.00;;;17.51;37.13
41202;BME280;26936;50.524;8.684;2023-04-26T08:35:29;99606.09;;;16.96;38.02
41202;BME280;26936;50.524;8.684;2023-04-26T08:37:54;99602.19;;;17.57;37.61
41202;BME280;26936;50.524;8.684;2023-04-26T08:40:22;99598.03;;;17.24;35.98
41202;BME280;26936;50.524;8.684;2023-04-26T08:42:49;99594.69;;;17.25;37.14
41202;BME280;26936;50.524;8.684;2023-04-26T08:45:16;99603.00;;;17.43;34.10
41202;BME280;26936;50.524;8.684;2023-04-26T08:48:05;99600.00;;;17.32;35.92
41202;BME280;26936;50.524;8.684;2023-04-26T08:50:37;99594.78;;;17.45;35.87
41202;BME280;26936;50.524;8.684;2023-04-26T08:53:04;99592.44;;;17.15;36.82
41202;BME280;26936;50.524;8.684;2023-04-26T08:55:30;99592.34;;;16.51;38.78
41202;BME280;26936;50.524;8.684;2023-04-26T08:57:57;99586.00;;;16.18;37.38
41202;BME280;26936;50.524;8.684;2023-04-26T09:00:24;99585.94;;;15.80;37.50
41202;BME280;26936;50.524;8.684;2023-04-26T09:02:51;99589.03;;;15.35;36.70
41202;BME280;26936;50.524;8.684;2023-04-26T09:05:17;99580.50;;;15.35;36.72
41202;BME280;26936;50.524;8.684;2023-04-26T09:07:48;99589.19;;;14.89;38.62
41202;BME280;26936;50.524;8.684;2023-04-26T09:10:18;99586.94;;;14.43;39.83
41202;BME280;26936;50.524;8.684;2023-04-26T09:12:45;99587.63;;;13.44;40.77
41202;BME280;26936;50.524;8.684;2023-04-26T09:15:10;99581.13;;;14.28;40.51
41202;BME280;26936;50.524;8.684;2023-04-26T09:17:39;99581.56;;;13.91;39.88
41202;BME280;26936;50.524;8.684;2023-04-26T09:22:43;99584.13;;;12.70;45.21
41202;BME280;26936;50.524;8.684;2023-04-26T09:25:10;99588.66;;;12.98;43.91
41202;BME280;26936;50.524;8.684;2023-04-26T09:27:39;99587.75;;;12.27;46.90
41202;BME280;26936;50.524;8.684;2023-04-26T09:30:10;99592.66;;;11.92;46.40
41202;BME280;26936;50.524;8.684;2023-04-26T09:32:52;99593.53;;;12.02;46.81
41202;BME280;26936;50.524;8.684;2023-04-26T09:37:54;99585.72;;;12.27;45.10
41202;BME280;26936;50.524;8.684;2023-04-26T09:40:21;99591.31;;;12.18;46.50
41202;BME280;26936;50.524;8.684;2023-04-26T09:42:46;99585.13;;;12.32;46.20
41202;BME280;26936;50.524;8.684;2023-04-26T09:45:12;99583.38;;;12.26;46.60
41202;BME280;26936;50.524;8.684;2023-04-26T09:47:37;99589.72;;;12.39;46.22
41202;BME280;26936;50.524;8.684;2023-04-26T09:50:02;99580.44;;;12.82;45.70
41202;BME280;26936;50.524;8.684;2023-04-26T09:52:28;99571.81;;;13.25;45.46
41202;BME280;26936;50.524;8.684;2023-04-26T09:54:53;99570.38;;;13.60;45.22
41202;BME280;26936;50.524;8.684;2023-04-26T09:57:20;99563.66;;;14.03;44.27
41202;BME280;26936;50.524;8.684;2023-04-26T09:59:50;99567.88;;;13.71;45.00
41202;BME280;26936;50.524;8.684;2023-04-26T10:02:21;99577.25;;;13.59;44.75
41202;BME280;26936;50.524;8.684;2023-04-26T10:04:54;99572.81;;;13.40;45.18
41202;BME280;26936;50.524;8.684;2023-04-26T10:07:22;99567.41;;;13.15;46.58
41202;BME280;26936;50.524;8.684;2023-04-26T10:09:48;99573.94;;;13.42;44.30
41202;BME280;26936;50.524;8.684;2023-04-26T10:12:16;99567.56;;;13.11;45.61
41202;BME280;26936;50.524;8.684;2023-04-26T10:14:43;99574.19;;;12.87;44.78
41202;BME280;26936;50.524;8.684;2023-04-26T10:17:09;99578.31;;;12.64;45.50
41202;BME280;26936;50.524;8.684;2023-04-26T10:19:36;99573.91;;;12.20;47.83
41202;BME280;26936;50.524;8.684;2023-04-26T10:22:23;99573.59;;;12.18;48.30
41202;BME280;26936;50.524;8.684;2023-04-26T10:24:51;99566.88;;;12.24;48.53
41202;BME280;26936;50.524;8.684;2023-04-26T10:30:16;99564.75;;;13.20;47.80
41202;BME280;26936;50.524;8.684;2023-04-26T10:35:17;99570.22;;;13.63;45.92
41202;BME280;26936;50.524;8.684;2023-04-26T10:40:37;99557.59;;;13.46;43.81
41202;BME280;26936;50.524;8.684;2023-04-26T10:45:47;99552.50;;;12.84;46.83
41202;BME280;26936;50.524;8.684;2023-04-26T10:48:18;99544.06;;;12.62;45.95
41202;BME280;26936;50.524;8.684;2023-04-26T10:53:24;99551.28;;;12.63;46.64
41202;BME280;26936;50.524;8.684;2023-04-26T10:55:50;99546.13;;;12.40;46.67
41202;BME280;26936;50.524;8.684;2023-04-26T10:58:26;99542.88;;;12.81;46.85
41202;BME280;26936;50.524;8.684;2023-04-26T11:01:14;99543.50;;;13.07;46.41
41202;BME280;26936;50.524;8.684;2023-04-26T11:06:23;99537.94;;;13.43;43.08
41202;BME280;26936;50.524;8.684;2023-04-26T11:08:49;99535.78;;;13.74;43.11
41202;BME280;26936;50.524;8.684;2023-04-26T11:11:15;99532.00;;;13.68;44.37
41202;BME280;26936;50.524;8.684;2023-04-26T11:13:42;99537.53;;;13.14;44.48
41202;BME280;26936;50.524;8.684;2023-04-26T11:16:09;99530.81;;;13.11;43.38
41202;BME280;26936;50.524;8.684;2023-04-26T11:18:36;99532.59;;;13.36;42.36
41202;BME280;26936;50.524;8.684;2023-04-26T11:21:03;99533.69;;;13.38;41.52
41202;BME280;26936;50.524;8.684;2023-04-26T11:23:29;99531.91;;;13.14;41.90
41202;BME280;26936;50.524;8.684;2023-04-26T11:26:03;99527.50;;;13.22;44.30
41202;BME280;26936;50.524;8.684;2023-04-26T11:28:29;99532.09;;;13.28;43.82
41202;BME280;26936;50.524;8.684;2023-04-26T11:30:55;99526.97;;;13.54;43.78
41202;BME280;26936;50.524;8.684;2023-04-26T11:33:21;99523.22;;;13.75;43.92
41202;BME280;26936;50.524;8.684;2023-04-26T11:35:51;99527.91;;;13.69;41.92
41202;BME280;26936;50.524;8.684;2023-04-26T11:38:20;99521.50;;;13.87;43.04
41202;BME280;26936;50.524;8.684;2023-04-26T11:40:52;99515.97;;;14.10;44.78
41202;BME280;26936;50.524;8.684;2023-04-26T11:43:17;99521.16;;;13.94;44.12
41202;BME280;26936;50.524;8.684;2023-04-26T11:45:44;99516.13;;;14.25;42.35
41202;BME280;26936;50.524;8.684;2023-04-26T11:48:11;99516.44;;;14.27;42.70
41202;BME280;26936;50.524;8.684;2023-04-26T11:50:37;99525.09;;;14.14;42.12
41202;BME280;26936;50.524;8.684;2023-04-26T11:53:04;99523.06;;;14.06;40.47
41202;BME280;26936;50.524;8.684;2023-04-26T11:55:32;99518.19;;;13.70;45.96
41202;BME280;26936;50.524;8.684;2023-04-26T11:58:08;99515.19;;;13.64;42.34
41202;BME280;26936;50.524;8.684;2023-04-26T12:00:34;99511.25;;;13.62;42.08
41202;BME280;26936;50.524;8.684;2023-04-26T12:03:04;99509.50;;;13.92;42.22
41202;BME280;26936;50.524;8.684;2023-04-26T12:05:31;99503.56;;;13.90;41.48
41202;BME280;26936;50.524;8.684;2023-04-26T12:07:58;99507.31;;;14.14;40.78
41202;BME280;26936;50.524;8.684;2023-04-26T12:10:29;99503.34;;;14.11;42.83
41202;BME280;26936;50.524;8.684;2023-04-26T12:12:55;99505.09;;;14.09;41.91
41202;BME280;26936;50.524;8.684;2023-04-26T12:15:24;99501.19;;;14.06;40.80
41202;BME280;26936;50.524;8.684;2023-04-26T12:20:31;99510.44;;;13.43;42.98
41202;BME280;26936;50.524;8.684;2023-04-26T12:23:23;99506.81;;;13.34;44.65
41202;BME280;26936;50.524;8.684;2023-04-26T12:25:56;99505.75;;;13.58;42.53
41202;BME280;26936;50.524;8.684;2023-04-26T12:28:24;99504.03;;;13.79;42.88
41202;BME280;26936;50.524;8.684;2023-04-26T12:30:50;99493.31;;;13.74;44.06
41202;BME280;26936;50.524;8.684;2023-04-26T12:33:16;99505.09;;;13.54;42.63
41202;BME280;26936;50.524;8.684;2023-04-26T12:35:44;99498.84;;;13.78;43.78
41202;BME280;26936;50.524;8.684;2023-04-26T12:38:09;99489.19;;;14.11;42.54
41202;BME280;26936;50.524;8.684;2023-04-26T12:40:35;99495.06;;;13.72;44.67
41202;BME280;26936;50.524;8.684;2023-04-26T12:43:00;99489.53;;;13.77;43.84
41202;BME280;26936;50.524;8.684;2023-04-26T12:45:26;99488.59;;;13.98;42.48
41202;BME280;26936;50.524;8.684;2023-04-26T12:47:52;99488.44;;;13.84;43.01
41202;BME280;26936;50.524;8.684;2023-04-26T12:50:17;99490.97;;;13.73;43.13
41202;BME280;26936;50.524;8.684;2023-04-26T12:52:43;99500.38;;;13.79;43.79
41202;BME280;26936;50.524;8.684;2023-04-26T12:55:10;99491.13;;;13.87;44.86
41202;BME280;26936;50.524;8.684;2023-04-26T12:57:36;99497.25;;;13.86;41.77
41202;BME280;26936;50.524;8.684;2023-04-26T13:00:03;99493.19;;;13.87;41.14
41202;BME280;26936;50.524;8.684;2023-04-26T13:02:29;99491.13;;;13.69;40.01
41202;BME280;26936;50.524;8.684;2023-04-26T13:04:54;99496.47;;;13.00;40.30
41202;BME280;26936;50.524;8.684;2023-04-26T13:07:20;99496.72;;;13.33;42.59
41202;BME280;26936;50.524;8.684;2023-04-26T13:09:46;99487.34;;;13.36;41.87
41202;BME280;26936;50.524;8.684;2023-04-26T13:12:11;99493.63;;;13.49;42.16
41202;BME280;26936;50.524;8.684;2023-04-26T13:14:36;99492.00;;;13.21;42.70
41202;BME280;26936;50.524;8.684;2023-04-26T13:17:03;99497.97;;;13.14;42.85
41202;BME280;26936;50.524;8.684;2023-04-26T13:19:28;99496.75;;;13.42;41.92